Terminal Aerodrome Forecast
Issued by NWS

Home | Current Version | Previous Version | Text Only | Print | Product List | Glossary On
Versions: 1 2 3 4 5 6 7 8 9 10 11 12 13 14 15 16 17 18 19 20 21 22 23
558
FTUS43 KDLH 290311 AAA
TAFBRD
TAF AMD
KBRD 290311Z 2903/2924 VRB02KT 3SM -DZ BR VCSH SCT007 OVC015
     FM291000 29006KT P6SM BKN008 OVC018
     FM291500 29010KT P6SM BKN025
     FM291900 29010G19KT P6SM VCSH BKN050=

USA.gov is the U.S. government's official web portal to all federal, state and local government web resources and services.